Time;durP1;ratioP1;P1;durP2;ratioP2;P2;SDS_P1;SDS_P2;PMS_P1;PMS_P2;Temp;Humidity;BMP_temperature;BMP_pressure;BME280_temperature;BME280_humidity;BME280_pressure;Samples;Min_cycle;Max_cycle;Signal;HPM_P1;HPM_P2
2022/02/21 00:00:12;;;;;;;4.85;1.30;;;6.10;93.50;;;;;;5098705;28;20054;-80
2022/02/21 00:02:42;;;;;;;3.88;0.85;;;5.90;93.30;;;;;;5100967;28;20071;-78
2022/02/21 00:05:09;;;;;;;5.20;0.90;;;6.00;93.10;;;;;;5107878;28;20083;-80
2022/02/21 00:07:35;;;;;;;4.45;1.13;;;5.90;93.10;;;;;;5081195;28;20043;-80
2022/02/21 00:10:00;;;;;;;6.78;1.73;;;5.80;93.10;;;;;;5096979;28;20191;-77
2022/02/21 00:12:26;;;;;;;6.75;1.08;;;5.70;93.20;;;;;;5114833;28;20040;-78
2022/02/21 00:14:52;;;;;;;5.85;1.55;;;5.80;93.20;;;;;;5079828;28;20063;-77
2022/02/21 00:17:17;;;;;;;5.35;1.35;;;5.80;93.10;;;;;;5078729;28;20036;-77
2022/02/21 00:19:43;;;;;;;8.07;1.55;;;5.90;93.10;;;;;;5114119;28;20156;-78
2022/02/21 00:22:09;;;;;;;5.03;1.17;;;5.80;93.00;;;;;;5063007;28;20401;-78
2022/02/21 00:24:34;;;;;;;6.95;1.27;;;5.80;92.90;;;;;;5114647;28;20126;-77
2022/02/21 00:27:00;;;;;;;6.13;1.17;;;5.90;92.80;;;;;;5078695;28;20036;-80
2022/02/21 00:29:26;;;;;;;4.80;1.42;;;5.80;92.80;;;;;;5078454;28;20031;-78
2022/02/21 00:31:51;;;;;;;4.57;0.82;;;5.80;92.80;;;;;;5095240;28;20508;-78
2022/02/21 00:34:17;;;;;;;6.43;1.33;;;5.80;92.80;;;;;;5097006;28;20043;-77
2022/02/21 00:36:43;;;;;;;4.00;1.10;;;5.80;92.80;;;;;;5096027;28;20054;-79
2022/02/21 00:39:09;;;;;;;4.43;1.10;;;5.90;92.80;;;;;;5095898;28;20039;-78
2022/02/21 00:41:34;;;;;;;5.95;1.65;;;5.80;92.70;;;;;;5095992;28;20052;-78
2022/02/21 00:44:00;;;;;;;12.15;1.80;;;5.90;92.70;;;;;;5096308;28;20404;-78
2022/02/21 00:46:26;;;;;;;10.27;1.60;;;6.00;92.60;;;;;;5096848;28;20036;-78
2022/02/21 00:48:51;;;;;;;5.97;1.70;;;5.90;92.50;;;;;;5078416;28;20097;-78
2022/02/21 00:51:17;;;;;;;5.75;1.40;;;6.00;92.40;;;;;;5097305;28;20043;-78
2022/02/21 00:53:43;;;;;;;7.70;2.08;;;6.00;92.30;;;;;;5096936;28;20051;-79
2022/02/21 00:56:09;;;;;;;5.70;2.00;;;6.00;92.20;;;;;;5097917;28;20054;-79
2022/02/21 00:58:35;;;;;;;10.10;2.08;;;5.90;92.00;;;;;;5117095;28;20044;-79
2022/02/21 01:01:00;;;;;;;7.50;1.70;;;6.00;92.00;;;;;;5062456;28;20042;-78
2022/02/21 01:03:26;;;;;;;6.22;1.50;;;5.90;91.90;;;;;;5116364;28;20046;-79
2022/02/21 01:05:52;;;;;;;10.50;1.90;;;5.90;91.80;;;;;;5080244;28;20050;-78
2022/02/21 01:08:18;;;;;;;7.43;1.58;;;5.90;92.00;;;;;;5078622;28;20039;-78
2022/02/21 01:10:43;;;;;;;6.63;1.60;;;5.90;91.60;;;;;;5095067;28;20071;-76
2022/02/21 01:13:09;;;;;;;6.75;1.38;;;5.90;91.60;;;;;;5114196;28;20063;-76
2022/02/21 01:15:35;;;;;;;8.30;1.70;;;6.00;91.50;;;;;;5095218;28;20481;-78
2022/02/21 01:18:03;;;;;;;6.45;1.52;;;5.90;91.40;;;;;;5095188;28;20043;-80
2022/02/21 01:20:29;;;;;;;5.05;1.65;;;5.90;91.40;;;;;;5080070;28;20044;-78
2022/02/21 01:22:55;;;;;;;11.23;2.03;;;5.90;91.40;;;;;;5096124;28;20062;-78
2022/02/21 01:25:20;;;;;;;7.35;2.00;;;5.80;91.20;;;;;;5095538;28;20048;-79
2022/02/21 01:27:46;;;;;;;12.82;2.78;;;5.90;91.20;;;;;;5078935;28;20035;-79
2022/02/21 01:30:13;;;;;;;9.13;2.20;;;5.90;90.90;;;;;;5077970;28;20039;-76
2022/02/21 01:32:40;;;;;;;9.85;1.95;;;5.80;90.80;;;;;;5094442;28;20612;-76
2022/02/21 01:35:06;;;;;;;9.43;2.03;;;5.80;90.70;;;;;;5094855;28;20036;-78
2022/02/21 01:37:32;;;;;;;7.70;1.80;;;6.00;90.70;;;;;;5077734;28;20100;-76
2022/02/21 01:39:58;;;;;;;6.55;1.60;;;5.70;90.50;;;;;;5078100;28;20126;-77
2022/02/21 01:42:24;;;;;;;8.07;1.95;;;5.70;90.30;;;;;;5079098;28;20501;-77
2022/02/21 01:44:50;;;;;;;7.75;1.73;;;5.80;90.30;;;;;;5095965;28;20120;-77
2022/02/21 01:47:19;;;;;;;8.15;2.10;;;5.80;90.20;;;;;;5113579;28;20032;-78
2022/02/21 01:49:46;;;;;;;6.28;2.03;;;5.70;90.10;;;;;;5078542;28;20040;-78
2022/02/21 01:52:12;;;;;;;11.75;2.38;;;5.70;90.00;;;;;;5077773;28;20056;-78
2022/02/21 01:54:38;;;;;;;5.78;1.77;;;5.80;90.00;;;;;;5078167;28;20436;-79
2022/02/21 01:57:05;;;;;;;6.07;1.60;;;5.70;89.30;;;;;;5062166;28;20047;-78
2022/02/21 01:59:33;;;;;;;6.20;2.03;;;5.70;88.50;;;;;;5113841;28;20492;-78
2022/02/21 02:01:59;;;;;;;5.43;1.23;;;5.90;87.90;;;;;;5077511;28;20035;-77
2022/02/21 02:04:26;;;;;;;8.43;1.85;;;5.90;87.30;;;;;;5094106;28;20397;-77
2022/02/21 02:06:52;;;;;;;6.38;1.30;;;6.10;87.00;;;;;;5113244;28;20067;-78
2022/02/21 02:09:18;;;;;;;6.07;1.85;;;6.00;86.70;;;;;;5094697;28;20496;-76
2022/02/21 02:11:45;;;;;;;7.70;1.50;;;6.00;86.40;;;;;;5094391;28;20059;-77
2022/02/21 02:14:28;;;;;;;3.60;1.70;;;6.10;86.30;;;;;;5094748;28;20047;-78
2022/02/21 02:16:54;;;;;;;9.70;2.00;;;6.00;86.30;;;;;;5093958;28;20040;-78
2022/02/21 02:19:20;;;;;;;7.55;1.73;;;5.90;86.00;;;;;;5077374;28;20062;-78
2022/02/21 02:21:52;;;;;;;6.80;1.83;;;5.90;85.90;;;;;;5077329;28;20144;-78
2022/02/21 02:24:18;;;;;;;7.32;1.65;;;5.80;85.60;;;;;;5081918;28;20370;-78
2022/02/21 02:26:43;;;;;;;6.15;1.58;;;5.90;85.70;;;;;;5098317;28;20046;-77
2022/02/21 02:29:09;;;;;;;8.32;1.50;;;5.90;85.70;;;;;;5082995;28;20149;-79
2022/02/21 02:31:35;;;;;;;12.13;2.05;;;5.80;85.50;;;;;;5099208;28;20050;-78
2022/02/21 02:34:01;;;;;;;8.50;2.20;;;5.90;85.10;;;;;;5065520;28;20393;-78
2022/02/21 02:36:27;;;;;;;7.63;1.92;;;5.90;84.80;;;;;;5081618;28;20556;-77
2022/02/21 02:38:53;;;;;;;7.45;1.80;;;5.50;84.80;;;;;;5115457;28;20044;-80
2022/02/21 02:41:19;;;;;;;8.35;1.88;;;5.30;86.10;;;;;;5098042;28;20398;-78
2022/02/21 02:43:45;;;;;;;5.10;1.33;;;5.10;87.00;;;;;;5097794;28;20138;-77
2022/02/21 02:46:11;;;;;;;5.00;1.52;;;5.00;87.20;;;;;;5080253;28;20068;-77
2022/02/21 02:48:36;;;;;;;7.03;1.30;;;5.10;87.30;;;;;;5080141;28;20040;-78
2022/02/21 02:51:02;;;;;;;6.22;1.70;;;5.20;87.20;;;;;;5097315;28;20107;-77
2022/02/21 02:53:29;;;;;;;5.70;1.50;;;5.20;86.60;;;;;;5080058;28;20039;-77
2022/02/21 02:55:56;;;;;;;7.80;1.75;;;5.40;86.10;;;;;;5097241;28;20031;-77
2022/02/21 02:58:21;;;;;;;5.82;1.77;;;5.40;85.60;;;;;;5096630;28;20481;-78
2022/02/21 03:00:47;;;;;;;4.95;1.45;;;5.50;85.00;;;;;;5114896;28;21978;-77
2022/02/21 03:03:14;;;;;;;8.18;1.70;;;5.50;84.60;;;;;;5097276;28;20040;-77
2022/02/21 03:05:40;;;;;;;9.85;1.60;;;5.50;84.10;;;;;;5113231;28;20046;-77
2022/02/21 03:08:06;;;;;;;5.32;1.40;;;5.40;84.30;;;;;;5115081;28;20040;-77
2022/02/21 03:10:32;;;;;;;11.75;1.77;;;5.30;84.80;;;;;;5114766;28;20115;-77
2022/02/21 03:12:58;;;;;;;7.40;1.20;;;5.30;84.90;;;;;;5080081;28;20127;-77
2022/02/21 03:15:24;;;;;;;9.80;1.98;;;5.10;85.10;;;;;;5079761;28;20035;-77
2022/02/21 03:17:49;;;;;;;3.75;1.23;;;5.10;85.30;;;;;;5115283;28;20397;-77
2022/02/21 03:20:15;;;;;;;5.75;1.63;;;5.10;85.30;;;;;;5079858;28;20036;-77
2022/02/21 03:22:44;;;;;;;4.43;1.40;;;5.10;85.30;;;;;;5079659;28;20050;-77
2022/02/21 03:25:13;;;;;;;7.05;1.77;;;5.10;85.10;;;;;;5080300;28;20042;-77
2022/02/21 03:27:43;;;;;;;5.72;1.70;;;5.10;85.10;;;;;;5114494;28;20038;-78
2022/02/21 03:30:10;;;;;;;7.47;1.50;;;5.20;85.00;;;;;;5114575;28;20043;-78
2022/02/21 03:32:37;;;;;;;9.63;1.70;;;5.20;84.60;;;;;;5096701;28;20288;-78
2022/02/21 03:35:04;;;;;;;6.70;1.50;;;5.10;84.40;;;;;;5113601;28;20048;-78
2022/02/21 03:37:31;;;;;;;6.28;1.25;;;4.90;84.70;;;;;;5071374;28;20494;-77
2022/02/21 03:39:57;;;;;;;6.18;1.40;;;4.70;85.10;;;;;;5054932;28;20045;-77
2022/02/21 03:42:23;;;;;;;6.88;1.83;;;4.70;85.60;;;;;;5038812;28;20052;-78
2022/02/21 03:44:49;;;;;;;4.15;1.25;;;4.60;85.90;;;;;;5054884;28;20055;-77
2022/02/21 03:47:15;;;;;;;9.23;1.77;;;4.60;86.00;;;;;;5038255;28;20062;-78
2022/02/21 03:49:41;;;;;;;7.38;1.45;;;4.70;86.00;;;;;;5054561;28;20599;-77
2022/02/21 03:52:07;;;;;;;11.25;1.55;;;4.70;85.80;;;;;;5071566;28;20052;-77
2022/02/21 03:54:32;;;;;;;5.38;1.23;;;4.80;85.60;;;;;;5071479;28;20048;-77
2022/02/21 03:56:58;;;;;;;6.97;1.70;;;4.80;85.20;;;;;;5038227;28;20139;-78
2022/02/21 03:59:24;;;;;;;8.10;1.80;;;4.90;85.00;;;;;;5071796;28;20051;-77
2022/02/21 04:01:50;;;;;;;8.55;1.98;;;4.90;84.80;;;;;;5071931;28;20054;-77
2022/02/21 04:04:15;;;;;;;8.45;1.85;;;4.90;84.70;;;;;;5052529;28;20036;-77
2022/02/21 04:06:41;;;;;;;8.35;1.63;;;5.00;84.60;;;;;;5054683;28;20053;-77
2022/02/21 04:09:07;;;;;;;8.35;1.80;;;5.00;84.90;;;;;;5103814;28;20045;-77
2022/02/21 04:11:33;;;;;;;8.30;1.80;;;5.00;84.10;;;;;;5113934;28;20043;-77
2022/02/21 04:13:59;;;;;;;8.40;1.60;;;5.00;84.00;;;;;;5078577;28;20039;-77
2022/02/21 04:16:31;;;;;;;6.35;1.63;;;5.00;84.00;;;;;;5114280;28;20039;-77
2022/02/21 04:18:57;;;;;;;5.10;1.15;;;5.00;84.00;;;;;;5080625;28;20043;-77
2022/02/21 04:21:23;;;;;;;5.55;1.40;;;5.00;84.10;;;;;;5078486;28;20032;-77
2022/02/21 04:23:48;;;;;;;6.03;1.33;;;5.00;83.90;;;;;;5078516;28;20031;-77
2022/02/21 04:26:14;;;;;;;5.82;1.70;;;5.10;83.90;;;;;;5061779;28;20362;-77
2022/02/21 04:28:40;;;;;;;6.15;1.50;;;5.20;83.70;;;;;;5095341;28;20074;-77
2022/02/21 04:31:05;;;;;;;8.02;1.70;;;5.10;83.40;;;;;;5114131;28;20478;-77
2022/02/21 04:33:31;;;;;;;6.40;1.60;;;5.10;83.20;;;;;;5095322;28;20043;-76
2022/02/21 04:35:57;;;;;;;7.40;1.42;;;5.20;83.10;;;;;;5114062;28;20040;-77
2022/02/21 04:38:23;;;;;;;5.50;1.60;;;5.10;82.90;;;;;;5095225;28;20039;-77
2022/02/21 04:40:48;;;;;;;8.27;1.85;;;5.20;82.70;;;;;;5095660;28;20039;-78
2022/02/21 04:43:14;;;;;;;5.38;1.52;;;5.20;82.60;;;;;;5113799;28;20548;-77
2022/02/21 04:45:40;;;;;;;6.07;1.50;;;5.20;82.20;;;;;;5094688;28;20040;-78
2022/02/21 04:48:06;;;;;;;4.95;1.50;;;5.20;82.20;;;;;;5095673;28;20035;-77
2022/02/21 04:50:33;;;;;;;5.60;1.48;;;5.20;82.10;;;;;;5095052;28;20039;-77
2022/02/21 04:52:59;;;;;;;4.35;1.40;;;5.10;82.20;;;;;;5078681;28;20134;-77
2022/02/21 04:55:24;;;;;;;10.88;1.38;;;5.00;82.20;;;;;;5113350;28;20067;-77
2022/02/21 04:57:50;;;;;;;7.93;1.52;;;5.10;82.20;;;;;;5094887;28;20096;-77
2022/02/21 05:00:16;;;;;;;8.85;1.45;;;5.00;81.90;;;;;;5095031;28;20043;-77
2022/02/21 05:02:42;;;;;;;6.50;1.55;;;5.00;82.40;;;;;;5094914;28;20043;-77
2022/02/21 05:05:10;;;;;;;6.68;1.65;;;5.00;81.40;;;;;;5113919;28;20039;-77
2022/02/21 05:07:38;;;;;;;7.18;1.90;;;5.00;81.60;;;;;;5113798;28;20381;-77
2022/02/21 05:10:05;;;;;;;6.03;1.40;;;5.10;81.00;;;;;;5095667;28;20500;-77
2022/02/21 05:12:31;;;;;;;3.28;1.13;;;5.10;81.00;;;;;;5078235;28;20047;-77
2022/02/21 05:14:56;;;;;;;5.35;1.15;;;5.10;81.10;;;;;;5113181;28;20042;-76
2022/02/21 05:17:22;;;;;;;4.72;1.13;;;5.00;81.20;;;;;;5094769;28;20520;-77
2022/02/21 05:19:48;;;;;;;4.45;1.00;;;5.00;81.20;;;;;;5113033;28;20063;-77
2022/02/21 05:22:13;;;;;;;4.25;0.95;;;5.00;81.20;;;;;;5112781;28;20035;-77
2022/02/21 05:24:39;;;;;;;3.50;1.00;;;5.00;81.30;;;;;;5077921;28;20084;-77
2022/02/21 05:27:05;;;;;;;3.85;1.13;;;5.10;81.40;;;;;;5112875;28;20085;-77
2022/02/21 05:29:30;;;;;;;6.15;1.20;;;5.00;81.30;;;;;;5095086;28;20035;-77
2022/02/21 05:31:56;;;;;;;5.30;1.42;;;5.00;81.20;;;;;;5094710;28;20401;-77
2022/02/21 05:34:23;;;;;;;3.58;1.15;;;5.10;81.00;;;;;;5094812;28;20463;-77
2022/02/21 05:36:49;;;;;;;6.70;1.33;;;5.10;80.90;;;;;;5077995;28;20048;-78
2022/02/21 05:39:15;;;;;;;5.95;1.40;;;5.10;80.70;;;;;;5094501;28;20043;-77
2022/02/21 05:41:40;;;;;;;7.35;1.70;;;5.10;80.50;;;;;;5094850;28;20056;-77
2022/02/21 05:44:06;;;;;;;7.22;1.52;;;5.20;80.50;;;;;;5095206;28;20376;-76
2022/02/21 05:46:32;;;;;;;6.97;1.60;;;5.20;80.50;;;;;;5077698;28;20040;-76
2022/02/21 05:48:58;;;;;;;5.18;1.52;;;5.10;80.30;;;;;;5094465;28;20040;-76
2022/02/21 05:51:23;;;;;;;5.55;1.50;;;5.20;80.10;;;;;;5094268;28;20043;-76
2022/02/21 05:53:49;;;;;;;6.07;1.50;;;5.10;80.10;;;;;;5077448;28;20047;-77
2022/02/21 05:56:15;;;;;;;2.45;1.30;;;5.10;80.30;;;;;;5094467;28;20401;-76
2022/02/21 05:58:41;;;;;;;4.90;1.00;;;5.10;80.40;;;;;;5095668;28;20046;-76
2022/02/21 06:01:07;;;;;;;5.35;1.35;;;5.00;80.40;;;;;;5098636;28;20047;-76
2022/02/21 06:03:33;;;;;;;4.60;1.15;;;5.00;80.60;;;;;;5098090;28;20040;-76
2022/02/21 06:05:59;;;;;;;5.60;1.60;;;5.00;80.70;;;;;;5116228;28;20035;-76
2022/02/21 06:08:24;;;;;;;6.40;1.40;;;4.90;80.80;;;;;;5081138;28;20484;-76
2022/02/21 06:10:50;;;;;;;7.57;1.38;;;4.90;80.70;;;;;;5097730;28;20028;-77
2022/02/21 06:13:16;;;;;;;7.63;1.30;;;4.90;80.60;;;;;;5116100;28;20053;-76
2022/02/21 06:15:42;;;;;;;4.32;1.20;;;4.90;80.60;;;;;;5098169;28;20043;-77
2022/02/21 06:18:08;;;;;;;5.60;1.40;;;4.90;80.70;;;;;;5064057;28;20047;-78
2022/02/21 06:20:34;;;;;;;6.95;1.52;;;4.90;80.80;;;;;;5116403;28;20031;-77
2022/02/21 06:22:59;;;;;;;5.45;1.13;;;4.80;80.90;;;;;;5116386;28;20386;-76
2022/02/21 06:25:25;;;;;;;4.35;1.02;;;4.80;81.10;;;;;;5116485;28;20038;-76
2022/02/21 06:27:50;;;;;;;4.32;1.25;;;4.80;81.10;;;;;;5116163;28;20046;-76
2022/02/21 06:30:16;;;;;;;5.35;0.95;;;4.70;81.10;;;;;;5115809;28;20040;-76
2022/02/21 06:32:42;;;;;;;6.05;1.33;;;4.70;81.30;;;;;;5080717;28;20051;-76
2022/02/21 06:35:10;;;;;;;2.47;1.02;;;4.70;81.50;;;;;;5097310;28;20043;-76
2022/02/21 06:37:42;;;;;;;4.88;1.55;;;4.70;81.60;;;;;;5115568;28;20071;-76
2022/02/21 06:40:08;;;;;;;7.68;1.30;;;4.60;81.60;;;;;;5080636;28;20039;-76
2022/02/21 06:42:34;;;;;;;3.67;1.00;;;4.70;81.70;;;;;;5115587;28;20046;-76
2022/02/21 06:45:00;;;;;;;4.30;1.10;;;4.70;81.60;;;;;;5115973;28;20031;-76
2022/02/21 06:47:25;;;;;;;5.30;1.13;;;4.70;81.50;;;;;;5097721;28;20489;-76
2022/02/21 06:49:51;;;;;;;8.05;1.75;;;4.80;81.60;;;;;;5097422;28;20040;-76
2022/02/21 06:52:17;;;;;;;11.10;2.10;;;4.80;81.50;;;;;;5115384;28;20042;-77
2022/02/21 06:54:42;;;;;;;6.88;1.73;;;4.80;81.40;;;;;;5115425;28;20052;-76
2022/02/21 06:57:08;;;;;;;9.70;2.00;;;4.90;81.20;;;;;;5115224;28;20049;-76
2022/02/21 06:59:34;;;;;;;7.72;1.83;;;5.00;81.00;;;;;;5080046;28;20400;-77
2022/02/21 07:02:00;;;;;;;5.05;1.40;;;5.00;80.80;;;;;;5115606;28;20126;-77
2022/02/21 07:04:25;;;;;;;5.13;1.50;;;5.00;80.70;;;;;;5115401;28;20040;-76
2022/02/21 07:06:51;;;;;;;8.32;1.60;;;5.00;80.70;;;;;;5097367;28;20044;-76
2022/02/21 07:09:17;;;;;;;4.80;1.60;;;5.00;80.70;;;;;;5115409;28;20035;-76
2022/02/21 07:11:42;;;;;;;6.35;1.20;;;5.10;80.70;;;;;;5115434;28;20036;-76
2022/02/21 07:14:08;;;;;;;5.97;1.63;;;5.10;80.70;;;;;;5096954;28;20071;-76
2022/02/21 07:16:34;;;;;;;4.05;1.27;;;5.20;80.70;;;;;;5097185;28;20568;-76
2022/02/21 07:18:59;;;;;;;5.82;1.73;;;5.20;80.60;;;;;;5062836;28;20105;-76
2022/02/21 07:21:25;;;;;;;4.97;1.10;;;5.20;80.60;;;;;;5114592;28;20130;-76
2022/02/21 07:23:52;;;;;;;7.57;1.80;;;5.20;80.40;;;;;;5114654;28;20127;-76
2022/02/21 07:26:18;;;;;;;8.23;1.63;;;5.20;80.30;;;;;;5096676;28;20044;-76
2022/02/21 07:28:44;;;;;;;8.05;2.00;;;5.30;80.30;;;;;;5115139;28;20126;-77
2022/02/21 07:31:10;;;;;;;8.60;1.48;;;5.30;80.00;;;;;;5096859;28;20043;-77
2022/02/21 07:33:36;;;;;;;9.95;1.98;;;5.40;79.90;;;;;;5096551;28;20046;-76
2022/02/21 07:36:02;;;;;;;2.95;1.30;;;5.40;79.80;;;;;;5096601;28;20067;-76
2022/02/21 07:38:28;;;;;;;7.53;1.60;;;5.50;79.80;;;;;;5079437;28;20042;-76
2022/02/21 07:40:54;;;;;;;5.55;1.27;;;5.40;79.70;;;;;;5115098;28;20044;-76
2022/02/21 07:43:20;;;;;;;5.32;1.33;;;5.40;79.80;;;;;;5115057;28;20043;-76
2022/02/21 07:45:46;;;;;;;9.38;1.40;;;5.50;80.00;;;;;;5096247;28;20485;-76
2022/02/21 07:48:11;;;;;;;5.15;1.17;;;5.40;80.00;;;;;;5096346;28;20034;-76
2022/02/21 07:50:37;;;;;;;6.25;1.58;;;5.50;80.10;;;;;;5115137;28;20040;-76
2022/02/21 07:53:03;;;;;;;6.03;1.67;;;5.40;80.00;;;;;;5096297;28;20059;-76
2022/02/21 07:55:28;;;;;;;7.80;1.42;;;5.40;80.00;;;;;;5096861;28;20138;-76
2022/02/21 07:57:57;;;;;;;6.60;1.60;;;5.40;80.10;;;;;;5096177;28;20113;-76
2022/02/21 08:00:23;;;;;;;7.15;1.70;;;5.50;80.10;;;;;;5079772;28;20055;-76
2022/02/21 08:02:49;;;;;;;4.50;1.50;;;5.40;80.10;;;;;;5096017;28;20047;-76
2022/02/21 08:05:15;;;;;;;10.13;1.73;;;5.50;80.20;;;;;;5096034;28;20039;-76
2022/02/21 08:07:42;;;;;;;5.68;1.48;;;5.60;80.10;;;;;;5114227;28;20046;-77
2022/02/21 08:10:09;;;;;;;6.10;1.40;;;5.60;80.10;;;;;;5114094;28;20044;-76
2022/02/21 08:12:35;;;;;;;4.13;1.25;;;5.60;80.10;;;;;;5114060;28;20044;-76
2022/02/21 08:15:00;;;;;;;8.18;2.17;;;5.70;80.00;;;;;;5095801;28;20044;-76
2022/02/21 08:17:26;;;;;;;7.72;1.88;;;5.70;79.80;;;;;;5114097;28;20126;-77
2022/02/21 08:19:53;;;;;;;8.77;1.60;;;5.80;79.70;;;;;;5113788;28;20036;-76
2022/02/21 08:22:19;;;;;;;8.85;1.95;;;5.80;79.50;;;;;;5079041;28;20047;-76
2022/02/21 08:24:45;;;;;;;6.55;1.50;;;5.80;79.30;;;;;;5078792;28;20042;-76
2022/02/21 08:27:10;;;;;;;6.88;1.55;;;5.80;79.20;;;;;;5078661;28;20043;-76
2022/02/21 08:29:36;;;;;;;7.40;1.70;;;5.80;79.20;;;;;;5095542;28;20119;-76
2022/02/21 08:32:02;;;;;;;7.18;1.63;;;5.80;79.30;;;;;;5095892;28;20040;-76
2022/02/21 08:34:29;;;;;;;5.15;1.40;;;5.80;79.50;;;;;;5095611;28;20047;-76
2022/02/21 08:36:55;;;;;;;7.30;1.40;;;5.80;79.60;;;;;;5062376;28;20040;-76
2022/02/21 08:39:22;;;;;;;5.65;1.40;;;5.80;79.70;;;;;;5095628;28;20050;-76
2022/02/21 08:41:47;;;;;;;8.35;1.83;;;5.70;79.80;;;;;;5113954;28;20127;-76
2022/02/21 08:44:13;;;;;;;7.30;1.27;;;5.70;79.80;;;;;;5096021;28;20074;-76
2022/02/21 08:46:39;;;;;;;8.45;1.60;;;5.70;79.70;;;;;;5113986;28;20052;-75
2022/02/21 08:49:06;;;;;;;5.72;1.50;;;5.70;79.80;;;;;;5113659;28;20039;-76
2022/02/21 08:51:32;;;;;;;4.80;1.70;;;5.70;79.80;;;;;;5095321;28;20047;-75
2022/02/21 08:53:58;;;;;;;3.90;1.20;;;5.60;79.80;;;;;;5095084;28;20044;-75
2022/02/21 08:56:24;;;;;;;7.63;1.55;;;5.60;79.90;;;;;;5113282;28;20046;-76
2022/02/21 08:58:50;;;;;;;8.30;1.50;;;5.60;80.10;;;;;;5078675;28;20035;-76
2022/02/21 09:01:16;;;;;;;8.02;2.00;;;5.50;80.20;;;;;;5095138;28;20039;-75
2022/02/21 09:03:42;;;;;;;5.88;1.98;;;5.40;80.60;;;;;;5078254;28;20040;-75
2022/02/21 09:06:09;;;;;;;6.88;1.27;;;5.20;81.10;;;;;;5113412;28;20043;-76
2022/02/21 09:08:35;;;;;;;6.88;1.30;;;5.20;81.70;;;;;;5095921;28;20076;-75
2022/02/21 09:11:02;;;;;;;7.43;1.20;;;5.10;82.00;;;;;;5113451;28;20501;-76
2022/02/21 09:13:28;;;;;;;5.93;1.38;;;5.10;82.30;;;;;;5113316;28;20051;-76
2022/02/21 09:15:53;;;;;;;6.63;1.75;;;5.10;82.40;;;;;;5078277;28;20397;-76
2022/02/21 09:18:19;;;;;;;7.85;1.73;;;5.10;82.60;;;;;;5113494;28;20035;-76
2022/02/21 09:20:45;;;;;;;7.35;1.67;;;5.00;82.80;;;;;;5095261;28;20427;-76
2022/02/21 09:23:11;;;;;;;11.07;1.98;;;5.00;83.00;;;;;;5095765;28;20036;-76
2022/02/21 09:25:37;;;;;;;9.02;1.65;;;4.80;83.50;;;;;;5095558;28;20073;-76
2022/02/21 09:28:03;;;;;;;11.30;2.22;;;4.70;84.10;;;;;;5096115;28;20404;-77
2022/02/21 09:30:28;;;;;;;4.55;1.50;;;4.60;84.70;;;;;;5097427;28;20436;-76
2022/02/21 09:32:55;;;;;;;8.68;1.95;;;4.40;85.30;;;;;;5079660;28;20039;-76
2022/02/21 09:35:22;;;;;;;6.40;1.75;;;4.40;85.70;;;;;;5114265;28;20043;-76
2022/02/21 09:37:51;;;;;;;6.43;1.60;;;4.30;85.80;;;;;;5096056;28;20047;-76
2022/02/21 09:40:19;;;;;;;4.75;1.35;;;4.30;86.10;;;;;;5080643;28;20043;-76
2022/02/21 09:42:47;;;;;;;6.47;1.55;;;4.30;86.30;;;;;;5095938;28;20046;-76
2022/02/21 09:45:14;;;;;;;8.85;1.65;;;4.30;86.50;;;;;;5096756;28;20062;-76
2022/02/21 09:47:39;;;;;;;7.75;1.50;;;4.30;86.80;;;;;;5079830;28;20122;-76
2022/02/21 09:50:08;;;;;;;5.38;1.65;;;4.30;86.90;;;;;;5115972;28;20522;-76
2022/02/21 09:52:34;;;;;;;7.70;1.67;;;4.30;87.00;;;;;;5114710;28;20559;-76
2022/02/21 09:55:00;;;;;;;5.93;1.60;;;4.20;87.20;;;;;;5097165;28;20090;-76
2022/02/21 09:57:26;;;;;;;6.72;1.63;;;4.20;87.50;;;;;;5096945;28;20044;-76
2022/02/21 09:59:52;;;;;;;6.75;2.17;;;4.20;88.20;;;;;;5078670;28;20040;-77
2022/02/21 10:02:23;;;;;;;7.30;1.73;;;4.20;87.90;;;;;;5113191;28;20036;-77
2022/02/21 10:05:13;;;;;;;5.75;1.85;;;4.20;88.00;;;;;;5094816;28;20039;-77
2022/02/21 10:07:39;;;;;;;7.15;1.65;;;4.20;88.20;;;;;;5112411;28;20114;-77
2022/02/21 10:10:07;;;;;;;7.10;1.75;;;4.30;88.30;;;;;;5094465;28;20042;-78
2022/02/21 10:13:02;;;;;;;6.82;1.60;;;4.30;88.40;;;;;;5095014;28;20127;-78
2022/02/21 10:15:32;;;;;;;7.53;1.95;;;4.40;89.10;;;;;;5113029;28;20074;-77
2022/02/21 10:18:15;;;;;;;6.55;2.00;;;4.40;88.60;;;;;;5075684;28;20042;-77
2022/02/21 10:20:58;;;;;;;8.13;2.30;;;4.40;88.70;;;;;;5112719;28;20039;-77
2022/02/21 10:23:25;;;;;;;7.40;2.13;;;4.40;88.80;;;;;;5112466;28;20120;-78
2022/02/21 10:26:01;;;;;;;6.97;2.00;;;4.50;88.90;;;;;;5077756;28;20393;-77
2022/02/21 10:28:39;;;;;;;10.13;2.38;;;4.40;89.10;;;;;;5112562;28;20047;-77
2022/02/21 10:31:13;;;;;;;5.45;1.80;;;4.50;89.20;;;;;;5078573;28;20070;-77
2022/02/21 10:33:47;;;;;;;6.45;1.70;;;4.50;89.30;;;;;;5095473;28;20035;-77
2022/02/21 10:36:39;;;;;;;4.68;1.67;;;4.40;89.60;;;;;;5078094;28;20131;-78
2022/02/21 10:39:09;;;;;;;8.60;1.83;;;4.30;89.80;;;;;;5094859;28;20497;-77
2022/02/21 10:41:47;;;;;;;6.40;1.83;;;4.30;90.00;;;;;;5095290;28;20043;-78
2022/02/21 10:44:28;;;;;;;6.35;1.63;;;4.30;90.10;;;;;;5115725;28;20043;-78
2022/02/21 10:47:15;;;;;;;4.28;1.77;;;4.30;90.20;;;;;;5097100;28;20032;-77
2022/02/21 10:50:00;;;;;;;7.22;1.48;;;4.30;90.30;;;;;;5096734;28;20201;-78
2022/02/21 10:52:38;;;;;;;10.43;2.00;;;4.20;90.30;;;;;;5098259;28;20062;-78
2022/02/21 10:55:06;;;;;;;7.07;1.83;;;4.20;90.40;;;;;;5081167;28;20126;-78
2022/02/21 10:57:41;;;;;;;6.78;1.40;;;4.10;90.40;;;;;;5113727;28;20044;-78
2022/02/21 11:00:10;;;;;;;5.35;1.75;;;4.20;90.50;;;;;;5097473;28;20043;-79
2022/02/21 11:02:39;;;;;;;5.15;1.50;;;4.20;90.50;;;;;;5097395;28;20039;-78
2022/02/21 11:05:08;;;;;;;4.47;1.30;;;4.30;90.60;;;;;;5080742;28;20039;-79
2022/02/21 11:07:35;;;;;;;7.78;1.95;;;4.30;90.50;;;;;;5080505;28;20054;-79
2022/02/21 11:10:03;;;;;;;7.65;1.60;;;4.30;90.50;;;;;;5097519;28;20496;-78
2022/02/21 11:12:34;;;;;;;10.43;1.80;;;4.40;90.60;;;;;;5080439;28;20047;-78
2022/02/21 11:15:01;;;;;;;;;;;4.30;90.60;;;;;;5098082;28;20134;-78
2022/02/21 11:17:28;;;;;;;7.07;1.52;;;4.40;90.60;;;;;;5115392;28;20381;-78
2022/02/21 11:19:54;;;;;;;6.13;1.77;;;4.40;90.60;;;;;;5115529;28;20131;-78
2022/02/21 11:22:21;;;;;;;8.48;2.05;;;4.50;90.70;;;;;;5114961;28;20048;-77
2022/02/21 11:24:51;;;;;;;5.80;1.65;;;4.40;90.70;;;;;;5115373;28;20044;-77
2022/02/21 11:27:35;;;;;;;5.27;1.50;;;4.50;90.70;;;;;;5097044;28;20039;-77
2022/02/21 11:30:13;;;;;;;6.68;1.70;;;4.50;90.80;;;;;;5081128;28;20500;-78
2022/02/21 11:32:58;;;;;;;9.27;1.92;;;4.50;90.80;;;;;;5114131;28;20036;-77
2022/02/21 11:35:24;;;;;;;7.32;1.70;;;4.50;90.80;;;;;;5097798;28;20477;-78
2022/02/21 11:37:50;;;;;;;5.07;1.48;;;4.60;90.90;;;;;;5096761;28;20044;-77
2022/02/21 11:40:16;;;;;;;11.13;2.03;;;4.60;90.90;;;;;;5096603;28;20051;-78
2022/02/21 11:42:42;;;;;;;10.63;2.10;;;4.60;90.90;;;;;;5062985;28;20044;-78
2022/02/21 11:45:27;;;;;;;6.95;1.60;;;4.60;90.90;;;;;;5063303;28;20050;-78
2022/02/21 11:47:57;;;;;;;4.72;1.60;;;4.70;91.00;;;;;;5097223;28;20448;-78
2022/02/21 11:50:26;;;;;;;10.23;2.60;;;4.80;91.00;;;;;;5097765;28;20066;-77
2022/02/21 11:52:55;;;;;;;12.05;2.53;;;4.90;91.10;;;;;;5114780;28;20044;-78
2022/02/21 11:55:36;;;;;;;10.23;2.75;;;4.90;91.10;;;;;;5095254;28;20070;-77
2022/02/21 11:58:35;;;;;;;10.55;2.42;;;5.10;91.10;;;;;;5095092;28;20043;-78
2022/02/21 12:01:10;;;;;;;12.73;2.47;;;5.20;91.10;;;;;;5098235;28;20067;-78
2022/02/21 12:03:35;;;;;;;15.63;3.30;;;5.30;91.10;;;;;;5096804;28;20114;-78
2022/02/21 12:06:29;;;;;;;12.88;3.17;;;5.40;91.10;;;;;;5096191;28;20115;-78
2022/02/21 12:09:01;;;;;;;12.38;2.85;;;5.50;91.20;;;;;;5083457;28;20401;-78
2022/02/21 12:11:29;;;;;;;10.23;2.50;;;5.60;91.20;;;;;;5096016;28;20039;-78
2022/02/21 12:14:16;;;;;;;14.88;3.03;;;5.70;91.10;;;;;;5096622;28;20040;-78
2022/02/21 12:17:02;;;;;;;13.25;2.85;;;5.70;91.10;;;;;;5082170;28;20063;-77
2022/02/21 12:19:30;;;;;;;11.32;2.30;;;5.80;91.20;;;;;;5094717;28;20031;-78
2022/02/21 12:22:08;;;;;;;8.68;2.85;;;5.90;91.20;;;;;;5112868;28;20044;-78
2022/02/21 12:24:34;;;;;;;9.88;2.58;;;6.00;91.20;;;;;;5078317;28;20084;-78
2022/02/21 12:27:16;;;;;;;10.30;2.40;;;6.10;91.20;;;;;;5113887;28;20036;-78
2022/02/21 12:29:41;;;;;;;14.75;2.45;;;6.20;91.20;;;;;;5076958;28;20047;-78
2022/02/21 12:32:11;;;;;;;7.30;2.08;;;6.20;91.10;;;;;;5095634;28;20397;-78
2022/02/21 12:34:39;;;;;;;9.68;2.50;;;6.30;91.10;;;;;;5079082;28;20115;-79
2022/02/21 12:37:08;;;;;;;9.93;2.47;;;6.40;91.10;;;;;;5114041;28;20070;-78
2022/02/21 12:39:43;;;;;;;12.43;2.33;;;6.50;91.10;;;;;;5113627;28;20123;-79
2022/02/21 12:42:09;;;;;;;12.93;3.63;;;6.50;91.20;;;;;;5062381;28;20516;-78
2022/02/21 12:44:35;;;;;;;10.75;2.60;;;6.60;91.20;;;;;;5095441;28;20035;-77
2022/02/21 12:47:05;;;;;;;9.38;2.55;;;6.60;91.20;;;;;;5096007;28;20043;-78
2022/02/21 12:49:35;;;;;;;8.35;2.58;;;6.70;91.20;;;;;;5095997;28;20084;-77
2022/02/21 12:52:08;;;;;;;10.63;2.28;;;6.70;91.20;;;;;;5094180;28;20039;-77
2022/02/21 12:54:35;;;;;;;8.93;2.00;;;6.90;91.20;;;;;;5079675;28;20401;-78
2022/02/21 12:57:03;;;;;;;11.50;2.50;;;6.90;91.30;;;;;;5113521;28;20051;-77